Time;durP1;ratioP1;P1;durP2;ratioP2;P2;SDS_P1;SDS_P2;PMS_P1;PMS_P2;Temp;Humidity;BMP_temperature;BMP_pressure;BME280_temperature;BME280_humidity;BME280_pressure;Samples;Min_cycle;Max_cycle;Signal;HPM_P1;HPM_P2
2022/12/27 00:00:50;;;;;;;24.75;15.90;;;;;;;12.08;65.21;101675.78;5011168;28;20026;-57
2022/12/27 00:03:17;;;;;;;28.02;17.85;;;;;;;11.92;65.57;101670.69;5010822;28;20022;-57
2022/12/27 00:05:47;;;;;;;28.40;17.35;;;;;;;11.66;66.89;101671.25;5010620;28;20026;-57
2022/12/27 00:08:14;;;;;;;29.63;18.27;;;;;;;11.44;67.65;101681.16;5011767;28;20030;-58
2022/12/27 00:10:40;;;;;;;31.95;18.48;;;;;;;11.33;68.44;101680.69;5010888;28;20084;-57
2022/12/27 00:13:06;;;;;;;31.27;18.40;;;;;;;11.34;68.52;101676.97;5011353;28;20033;-57
2022/12/27 00:15:33;;;;;;;33.63;19.38;;;;;;;11.30;69.18;101683.72;5011617;28;20030;-58
2022/12/27 00:18:00;;;;;;;34.25;18.27;;;;;;;11.22;69.16;101681.19;5011531;28;20033;-57
2022/12/27 00:20:26;;;;;;;32.13;18.25;;;;;;;11.24;69.59;101676.44;5011335;28;20030;-58
2022/12/27 00:22:52;;;;;;;30.02;17.77;;;;;;;11.11;69.84;101668.28;4988316;28;20042;-57
2022/12/27 00:25:18;;;;;;;31.20;18.65;;;;;;;11.00;70.26;101656.19;5008485;28;20026;-58
2022/12/27 00:27:45;;;;;;;34.47;19.02;;;;;;;11.30;69.50;101664.97;5011187;28;20575;-57
2022/12/27 00:30:12;;;;;;;31.80;19.42;;;;;;;11.12;70.06;101666.41;5011328;28;20026;-58
2022/12/27 00:32:38;;;;;;;30.45;18.73;;;;;;;11.39;69.20;101654.13;5010886;28;20033;-58
2022/12/27 00:35:05;;;;;;;35.28;20.05;;;;;;;11.26;69.62;101657.47;5008267;28;20055;-57
2022/12/27 00:37:31;;;;;;;28.88;17.35;;;;;;;11.28;69.70;101648.25;5009892;28;20025;-57
2022/12/27 00:39:58;;;;;;;36.10;20.10;;;;;;;11.33;69.51;101653.88;4994237;28;20061;-57
2022/12/27 00:42:24;;;;;;;34.42;19.00;;;;;;;11.24;69.80;101656.84;5014790;28;20096;-58
2022/12/27 00:44:50;;;;;;;27.80;17.80;;;;;;;11.38;69.36;101661.31;5014253;28;20476;-58
2022/12/27 00:47:17;;;;;;;32.80;19.45;;;;;;;11.43;69.06;101683.00;5014962;28;20045;-57
2022/12/27 00:49:43;;;;;;;30.42;19.42;;;;;;;11.45;68.79;101678.31;5014360;28;20132;-57
2022/12/27 00:52:09;;;;;;;33.10;19.35;;;;;;;11.36;69.33;101691.00;5014495;28;20025;-58
2022/12/27 00:54:35;;;;;;;37.13;20.30;;;;;;;11.50;68.85;101688.47;4996479;28;20384;-56
2022/12/27 00:57:02;;;;;;;30.67;19.27;;;;;;;11.27;69.79;101704.69;5014674;28;20025;-58
2022/12/27 00:59:28;;;;;;;31.27;19.05;;;;;;;10.96;71.13;101691.56;4962953;28;20484;-58
2022/12/27 01:01:54;;;;;;;38.78;19.50;;;;;;;10.98;70.86;101673.47;5014924;28;20053;-58
2022/12/27 01:04:20;;;;;;;34.63;18.95;;;;;;;10.86;71.71;101683.00;5013954;28;20101;-58
2022/12/27 01:06:47;;;;;;;28.83;18.20;;;;;;;11.02;70.99;101683.63;5011442;28;20105;-58
2022/12/27 01:09:13;;;;;;;29.30;18.15;;;;;;;11.06;71.25;101692.13;5011590;28;20026;-58
2022/12/27 01:11:40;;;;;;;33.60;18.98;;;;;;;11.04;71.48;101699.50;5014388;28;20022;-59
2022/12/27 01:14:06;;;;;;;30.67;18.50;;;;;;;11.01;71.87;101702.56;5013780;28;20026;-58
2022/12/27 01:16:33;;;;;;;33.53;19.52;;;;;;;10.98;72.47;101706.44;5014178;28;20037;-58
2022/12/27 01:19:00;;;;;;;37.03;20.25;;;;;;;11.09;72.76;101707.78;5014098;28;20113;-58
2022/12/27 01:21:29;;;;;;;36.40;20.70;;;;;;;11.25;72.96;101710.25;5013712;28;20026;-59
2022/12/27 01:23:56;;;;;;;37.90;20.65;;;;;;;11.23;73.24;101709.63;5014339;28;20022;-57
2022/12/27 01:26:23;;;;;;;34.85;20.70;;;;;;;11.26;73.04;101697.69;5013536;28;20519;-58
2022/12/27 01:28:50;;;;;;;37.47;21.23;;;;;;;11.28;73.05;101696.50;5013996;28;20029;-57
2022/12/27 01:31:20;;;;;;;36.85;20.38;;;;;;;11.35;73.08;101685.84;5013980;28;20061;-57
2022/12/27 01:33:47;;;;;;;33.70;19.92;;;;;;;11.41;73.29;101685.06;5013783;28;20497;-57
2022/12/27 01:36:18;;;;;;;30.55;19.38;;;;;;;11.52;73.69;101697.13;5013555;28;20380;-58
2022/12/27 01:38:46;;;;;;;36.03;19.77;;;;;;;11.57;73.93;101686.66;5013609;28;20029;-57
2022/12/27 01:47:31;;;;;;;36.60;20.98;;;;;;;11.61;74.91;101675.38;5013445;28;20084;-58
2022/12/27 01:50:16;;;;;;;36.55;21.13;;;;;;;11.54;75.46;101658.38;5012094;28;20052;-57
2022/12/27 01:52:58;;;;;;;34.00;21.02;;;;;;;11.57;75.66;101633.03;5013612;28;20052;-58
2022/12/27 01:55:38;;;;;;;40.72;22.25;;;;;;;11.61;76.02;101618.25;5013641;28;20088;-59
2022/12/27 01:58:26;;;;;;;40.88;22.65;;;;;;;11.59;76.40;101606.84;5013702;28;20108;-58
2022/12/27 02:00:52;;;;;;;41.00;22.17;;;;;;;11.66;76.65;101597.03;4993692;28;20030;-58
2022/12/27 02:03:27;;;;;;;41.28;23.50;;;;;;;11.88;77.15;101590.63;5006081;28;20506;-58
2022/12/27 02:05:54;;;;;;;46.65;24.00;;;;;;;11.70;77.92;101581.38;5013607;28;20033;-58
2022/12/27 02:08:35;;;;;;;44.25;23.25;;;;;;;11.88;78.20;101595.13;5012950;28;20130;-58
2022/12/27 02:11:03;;;;;;;45.38;23.45;;;;;;;11.67;79.55;101603.22;5013093;28;20476;-57
2022/12/27 02:13:33;;;;;;;41.28;22.80;;;;;;;11.82;79.82;101612.84;5012913;28;20037;-58
2022/12/27 02:15:59;;;;;;;43.50;23.00;;;;;;;11.75;79.98;101621.84;5013241;28;20029;-58
2022/12/27 02:18:25;;;;;;;41.10;22.10;;;;;;;11.72;80.11;101600.78;5012846;28;20045;-59
2022/12/27 02:21:36;;;;;;;46.35;23.98;;;;;;;11.89;80.54;101597.66;5012761;28;20049;-59
2022/12/27 02:24:17;;;;;;;58.90;24.30;;;;;;;12.08;80.30;101595.28;5013045;28;20436;-57
2022/12/27 02:26:58;;;;;;;47.83;24.33;;;;;;;11.93;81.10;101600.75;5013012;28;20108;-58
2022/12/27 02:29:46;;;;;;;43.08;22.33;;;;;;;12.04;80.63;101594.00;5012771;28;20033;-57
2022/12/27 02:32:27;;;;;;;42.72;23.30;;;;;;;11.95;81.04;101569.19;5012786;28;20034;-59
2022/12/27 02:35:27;;;;;;;44.17;22.88;;;;;;;11.89;81.77;101557.41;5012919;28;20026;-59
2022/12/27 02:38:00;;;;;;;40.65;22.42;;;;;;;11.94;82.31;101550.59;5012852;28;20499;-58
2022/12/27 02:55:07;;;;;;;;;;;;;;;11.81;89.08;101490.50;4993432;28;20033;-59
2022/12/27 02:57:42;;;;;;;44.22;19.90;;;;;;;11.83;88.82;101482.28;4994509;28;20286;-59
2022/12/27 03:03:39;;;;;;;32.92;17.35;;;;;;;12.05;89.79;101504.47;5012577;28;20139;-59
2022/12/27 03:06:39;;;;;;;29.98;14.52;;;;;;;12.07;90.36;101524.69;5009536;28;20038;-59
2022/12/27 03:15:53;;;;;;;30.58;13.73;;;;;;;12.21;90.38;101522.03;4999719;28;20117;-59
2022/12/27 03:18:03;;;;;;;18.00;10.80;;;;;;;12.32;91.42;101556.38;5002300;28;20058;-58
2022/12/27 03:26:04;;;;;;;20.42;10.25;;;;;;;12.52;90.58;101522.38;4992203;28;20060;-59
2022/12/27 03:34:34;;;;;;;44.90;19.85;;;;;;;12.55;87.68;101495.13;5008796;28;20041;-60
2022/12/27 03:40:28;;;;;;;42.40;20.73;;;;;;;12.45;86.65;101494.69;5012322;28;20053;-58
2022/12/27 03:43:10;;;;;;;40.45;20.23;;;;;;;12.43;86.66;101497.56;5011482;28;20057;-58
2022/12/27 03:49:03;;;;;;;39.45;19.13;;;;;;;12.47;87.21;101498.00;5011903;28;20049;-57
2022/12/27 03:51:36;;;;;;;37.75;19.48;;;;;;;12.40;87.15;101470.31;5011734;28;20423;-58
2022/12/27 03:54:25;;;;;;;40.08;19.77;;;;;;;12.38;87.40;101478.56;5011447;28;20192;-57
2022/12/27 03:57:01;;;;;;;38.10;18.55;;;;;;;12.42;88.29;101492.41;5011708;28;20022;-57
2022/12/27 03:59:27;;;;;;;38.20;20.50;;;;;;;12.46;87.26;101490.97;5011837;28;20546;-58
2022/12/27 04:01:55;;;;;;;38.00;20.05;;;;;;;12.44;87.47;101484.97;5011878;28;20072;-59
2022/12/27 04:04:21;;;;;;;39.47;19.42;;;;;;;12.51;87.04;101488.50;4994353;28;20065;-59
2022/12/27 04:06:48;;;;;;;46.78;22.33;;;;;;;12.54;86.19;101481.88;4994606;28;20563;-60
2022/12/27 04:36:41;;;;;;;49.27;22.27;;;;;;;12.47;87.79;101322.63;5008554;28;20038;-60
2022/12/27 04:39:07;;;;;;;41.08;21.48;;;;;;;12.59;87.66;101331.72;5014960;28;20494;-59
2022/12/27 04:55:28;;;;;;;55.72;27.75;;;;;;;12.24;84.70;101401.72;5015349;28;20156;-59
2022/12/27 04:57:56;;;;;;;52.05;28.42;;;;;;;12.23;84.41;101424.22;4995207;28;20023;-59
2022/12/27 05:03:14;;;;;;;56.40;28.02;;;;;;;11.94;85.95;101438.78;4995270;28;20137;-59
2022/12/27 05:05:42;;;;;;;60.78;29.05;;;;;;;11.76;87.46;101450.00;4995256;28;20108;-59
2022/12/27 05:16:24;;;;;;;65.10;33.30;;;;;;;11.35;91.62;101389.16;5014345;28;20045;-57
2022/12/27 05:18:52;;;;;;;59.65;30.50;;;;;;;11.51;90.36;101404.09;5014479;28;20492;-59
2022/12/27 05:21:18;;;;;;;66.00;32.20;;;;;;;11.45;90.72;101372.72;4996693;28;20495;-59
2022/12/27 05:26:31;;;;;;;62.97;31.17;;;;;;;11.54;90.68;101400.16;5013911;28;20033;-57
2022/12/27 05:28:58;;;;;;;65.05;32.13;;;;;;;11.56;90.60;101398.13;5013695;28;20388;-57
2022/12/27 05:31:26;;;;;;;65.35;32.03;;;;;;;11.37;91.76;101396.97;5014248;28;20105;-57
2022/12/27 05:33:53;;;;;;;65.40;32.15;;;;;;;11.49;90.90;101386.53;5014148;28;20119;-57
2022/12/27 05:36:20;;;;;;;67.13;34.30;;;;;;;11.48;90.84;101361.59;5008787;28;20130;-57
2022/12/27 05:38:46;;;;;;;56.28;29.92;;;;;;;11.49;91.50;101365.94;5008116;28;20500;-58
2022/12/27 05:41:13;;;;;;;59.97;30.58;;;;;;;11.56;91.45;101417.72;5014280;28;20088;-57
2022/12/27 05:43:40;;;;;;;58.42;30.50;;;;;;;11.75;90.92;101415.34;5013916;28;20022;-59
2022/12/27 05:46:18;;;;;;;61.33;29.00;;;;;;;11.69;90.59;101397.38;5013972;28;20108;-57
2022/12/27 05:48:44;;;;;;;57.92;29.30;;;;;;;11.74;90.55;101371.59;5013265;28;20046;-58
2022/12/27 05:51:19;;;;;;;55.35;29.45;;;;;;;11.53;92.58;101342.22;5013645;28;20021;-58
2022/12/27 05:53:47;;;;;;;62.47;29.50;;;;;;;11.36;94.35;101337.19;5013830;28;20030;-58
2022/12/27 05:56:19;;;;;;;66.07;29.67;;;;;;;11.33;94.48;101326.91;5013771;28;20040;-58
2022/12/27 05:58:46;;;;;;;62.70;29.52;;;;;;;11.48;94.35;101336.63;5013163;28;20056;-59
2022/12/27 06:01:15;;;;;;;59.45;29.48;;;;;;;11.56;93.70;101333.78;5013179;28;20030;-59
2022/12/27 06:03:42;;;;;;;55.42;28.45;;;;;;;11.67;93.71;101340.44;5007041;28;20412;-58
2022/12/27 06:06:09;;;;;;;58.08;28.48;;;;;;;11.67;93.22;101330.53;5004061;28;20527;-59
2022/12/27 06:08:35;;;;;;;58.13;30.25;;;;;;;11.79;92.30;101344.19;5012985;28;20026;-58
2022/12/27 06:11:10;;;;;;;57.38;29.30;;;;;;;11.76;92.69;101329.31;5013179;28;20506;-58
2022/12/27 06:13:37;;;;;;;58.23;29.00;;;;;;;11.85;92.02;101325.44;5013345;28;20080;-58
2022/12/27 06:16:05;;;;;;;65.05;29.75;;;;;;;11.73;92.35;101332.41;4995506;28;20053;-59
2022/12/27 06:18:34;;;;;;;53.72;28.33;;;;;;;11.96;91.75;101316.00;4993691;28;20030;-58
2022/12/27 06:21:05;;;;;;;54.65;29.50;;;;;;;11.75;91.95;101282.06;4993326;28;20089;-58
2022/12/27 06:23:33;;;;;;;59.95;29.80;;;;;;;11.95;91.61;101284.00;4997040;28;20029;-57
2022/12/27 06:26:06;;;;;;;55.17;27.83;;;;;;;11.80;92.26;101274.25;5013317;28;20029;-58
2022/12/27 06:28:33;;;;;;;54.92;27.88;;;;;;;11.87;92.21;101283.16;5013116;28;20119;-58
2022/12/27 06:31:00;;;;;;;58.15;29.27;;;;;;;11.81;91.89;101267.88;5012901;28;20049;-58
2022/12/27 06:33:28;;;;;;;53.88;27.33;;;;;;;11.87;92.34;101271.59;5012949;28;20053;-59
2022/12/27 06:35:54;;;;;;;44.50;24.77;;;;;;;12.01;91.99;101275.13;5010928;28;20022;-59
2022/12/27 06:38:21;;;;;;;51.47;26.27;;;;;;;12.09;91.22;101262.34;4993436;28;20154;-59
2022/12/27 06:40:47;;;;;;;43.97;23.17;;;;;;;12.06;90.98;101278.03;4993126;28;20026;-59
2022/12/27 06:43:14;;;;;;;42.33;23.50;;;;;;;12.12;90.73;101282.56;4993558;28;20065;-59
2022/12/27 06:45:41;;;;;;;43.80;24.23;;;;;;;12.19;90.30;101290.63;4993303;28;20025;-59
2022/12/27 06:48:07;;;;;;;44.30;23.73;;;;;;;12.25;90.07;101295.16;4993179;28;20033;-57
2022/12/27 06:50:33;;;;;;;46.97;25.75;;;;;;;12.31;89.68;101297.84;4992719;28;20082;-57
2022/12/27 06:53:00;;;;;;;51.72;25.30;;;;;;;12.19;89.97;101272.66;4992830;28;20030;-58
2022/12/27 06:55:26;;;;;;;44.25;23.90;;;;;;;12.33;89.20;101287.75;4992744;28;20072;-59
2022/12/27 06:57:52;;;;;;;51.53;25.73;;;;;;;12.31;88.92;101287.13;4992877;28;20027;-58
2022/12/27 07:00:19;;;;;;;51.38;25.30;;;;;;;12.29;89.09;101270.41;4997224;28;20018;-58
2022/12/27 07:02:46;;;;;;;51.05;24.90;;;;;;;12.25;89.41;101247.69;5015225;23;20049;-58
2022/12/27 07:05:13;;;;;;;54.83;27.27;;;;;;;12.06;90.13;101227.88;5031687;28;20029;-58
2022/12/27 07:07:39;;;;;;;48.15;24.73;;;;;;;12.16;89.89;101248.94;5031685;28;20383;-58
2022/12/27 07:10:06;;;;;;;45.50;23.77;;;;;;;12.15;89.56;101249.94;5031576;28;20035;-58
2022/12/27 07:12:32;;;;;;;43.63;23.25;;;;;;;12.27;89.47;101256.38;5031915;28;20040;-59
2022/12/27 07:14:58;;;;;;;42.80;22.80;;;;;;;12.17;90.19;101255.13;5031741;28;20120;-59
2022/12/27 07:17:24;;;;;;;37.70;21.33;;;;;;;12.13;90.08;101252.03;5031770;28;20392;-57
2022/12/27 07:19:50;;;;;;;41.03;20.27;;;;;;;12.22;89.50;101253.47;5031233;28;20109;-58
2022/12/27 07:22:17;;;;;;;37.55;19.65;;;;;;;12.25;89.64;101246.84;5031950;28;20033;-58
2022/12/27 07:24:43;;;;;;;37.45;18.88;;;;;;;12.26;89.94;101248.50;5031533;28;20017;-57
2022/12/27 07:27:09;;;;;;;35.33;18.63;;;;;;;12.25;89.97;101262.97;5031642;28;20054;-58
2022/12/27 07:29:35;;;;;;;38.78;20.52;;;;;;;12.14;90.60;101275.13;5031323;28;20100;-57
2022/12/27 07:32:02;;;;;;;37.60;19.67;;;;;;;12.12;90.71;101299.50;5031602;28;20422;-58
2022/12/27 07:34:28;;;;;;;39.83;20.27;;;;;;;12.01;91.75;101283.19;5031558;28;20088;-57
2022/12/27 07:36:54;;;;;;;38.85;18.92;;;;;;;12.12;91.45;101275.34;5031642;28;20057;-58
2022/12/27 07:39:20;;;;;;;33.85;19.48;;;;;;;11.87;92.86;101264.38;5031818;28;20022;-58
2022/12/27 07:41:46;;;;;;;37.28;19.38;;;;;;;11.83;93.20;101259.66;5031766;28;20030;-58
2022/12/27 07:44:13;;;;;;;40.20;20.23;;;;;;;11.89;93.26;101259.66;5031602;28;20032;-58
2022/12/27 07:46:39;;;;;;;38.00;20.02;;;;;;;11.62;94.08;101231.91;5031424;28;20467;-59
2022/12/27 07:49:06;;;;;;;42.17;19.55;;;;;;;11.61;94.84;101216.03;5034346;28;20112;-58
2022/12/27 07:51:32;;;;;;;36.47;19.20;;;;;;;11.65;95.12;101201.19;5001591;28;20067;-58
2022/12/27 07:53:58;;;;;;;35.78;19.05;;;;;;;11.61;95.63;101176.66;5035302;28;20025;-58
2022/12/27 07:56:27;;;;;;;33.78;16.92;;;;;;;11.53;96.66;101173.31;5035658;28;20104;-58
2022/12/27 07:58:55;;;;;;;25.08;14.38;;;;;;;11.57;96.87;101163.84;5035202;28;20021;-58
2022/12/27 08:01:24;;;;;;;28.90;14.52;;;;;;;11.54;97.50;101174.97;5035330;28;20029;-58
2022/12/27 08:03:50;;;;;;;32.55;14.05;;;;;;;11.62;97.49;101153.34;5035055;28;20053;-58
2022/12/27 08:06:23;;;;;;;20.17;11.43;;;;;;;11.66;97.13;101140.34;5025826;28;20029;-58
2022/12/27 08:08:51;;;;;;;14.73;9.32;;;;;;;11.69;97.24;101132.72;5015221;28;20040;-58
2022/12/27 08:11:18;;;;;;;16.92;9.80;;;;;;;11.76;96.87;101122.81;5015187;28;20121;-58
2022/12/27 08:13:44;;;;;;;14.07;7.75;;;;;;;11.69;96.70;101100.53;5015229;28;20535;-58
2022/12/27 08:16:21;;;;;;;17.00;8.60;;;;;;;11.76;96.59;101103.22;5015112;28;20125;-58
2022/12/27 08:18:47;;;;;;;17.40;9.85;;;;;;;11.67;97.10;101091.88;5015171;28;20369;-58
2022/12/27 08:21:14;;;;;;;15.10;9.40;;;;;;;11.84;96.68;101074.38;5015012;28;20480;-58
2022/12/27 08:23:40;;;;;;;16.75;8.95;;;;;;;11.61;96.76;101069.41;5015222;28;20029;-58
2022/12/27 08:26:07;;;;;;;11.30;7.47;;;;;;;11.67;96.75;101077.66;4997445;28;20029;-58
2022/12/27 08:28:34;;;;;;;11.88;7.03;;;;;;;11.69;96.73;101081.78;5014764;28;20088;-59
2022/12/27 08:31:00;;;;;;;11.10;7.00;;;;;;;11.80;96.56;101078.47;5015085;28;20050;-58
2022/12/27 08:33:27;;;;;;;12.77;7.43;;;;;;;11.57;96.86;101068.16;5014918;28;20034;-58
2022/12/27 08:35:55;;;;;;;9.68;6.60;;;;;;;11.69;96.49;101028.13;5016450;28;20109;-58
2022/12/27 08:38:22;;;;;;;11.82;6.55;;;;;;;11.75;95.34;101023.81;5034751;28;20030;-58
2022/12/27 08:40:48;;;;;;;8.55;5.85;;;;;;;11.72;95.98;101025.06;5034279;28;20029;-58
2022/12/27 08:43:14;;;;;;;8.57;4.30;;;;;;;11.76;95.59;101047.72;5034522;28;20021;-58
2022/12/27 08:45:41;;;;;;;10.70;4.68;;;;;;;11.75;95.34;101040.72;5034245;28;20033;-58
2022/12/27 08:48:07;;;;;;;7.60;4.15;;;;;;;11.69;95.64;101022.78;5034526;28;20111;-58
2022/12/27 08:50:34;;;;;;;7.10;3.65;;;;;;;11.77;95.07;101035.97;5034085;28;20022;-58
2022/12/27 08:53:02;;;;;;;5.72;3.83;;;;;;;11.76;94.42;101045.03;5034470;28;20040;-57
2022/12/27 08:55:28;;;;;;;5.63;3.55;;;;;;;11.79;95.18;101028.53;5034169;28;20376;-57
2022/12/27 08:58:00;;;;;;;5.63;3.65;;;;;;;11.72;95.20;100995.56;5016631;28;20030;-57
2022/12/27 09:00:27;;;;;;;6.05;3.38;;;;;;;11.67;95.62;100981.13;5033637;28;20026;-58
2022/12/27 09:02:54;;;;;;;5.43;3.42;;;;;;;11.68;95.77;100996.19;5034206;28;20521;-58
2022/12/27 09:05:23;;;;;;;6.05;3.28;;;;;;;11.74;95.39;100990.78;5034092;28;20021;-58
2022/12/27 09:07:50;;;;;;;4.85;3.10;;;;;;;11.68;95.98;100964.00;5024499;28;20022;-58
2022/12/27 09:10:17;;;;;;;6.80;3.10;;;;;;;11.58;96.35;100951.03;5014115;28;20091;-58
2022/12/27 09:12:44;;;;;;;3.85;2.63;;;;;;;11.60;96.64;100965.88;5014230;28;20034;-58
2022/12/27 09:15:11;;;;;;;3.75;2.45;;;;;;;11.57;96.73;100947.53;5014480;28;20488;-58
2022/12/27 09:17:38;;;;;;;3.70;2.25;;;;;;;11.59;96.18;100917.81;5014202;28;20026;-59
2022/12/27 09:20:05;;;;;;;6.38;2.53;;;;;;;11.52;96.50;100900.94;5013968;28;20033;-58
2022/12/27 09:22:31;;;;;;;4.75;2.47;;;;;;;11.52;97.10;100863.41;5013971;28;20030;-59
2022/12/27 09:24:57;;;;;;;5.60;2.55;;;;;;;11.57;97.03;100856.38;5014241;28;20112;-58
2022/12/27 09:27:23;;;;;;;8.05;2.75;;;;;;;11.56;96.42;100856.59;5014132;28;20060;-58
2022/12/27 09:29:50;;;;;;;4.88;2.83;;;;;;;11.57;96.69;100852.88;5013400;28;20022;-59
2022/12/27 09:32:16;;;;;;;3.88;2.67;;;;;;;11.58;96.91;100855.34;5013627;28;20037;-58
2022/12/27 09:34:42;;;;;;;6.43;2.35;;;;;;;11.53;97.22;100849.78;5013699;28;20096;-58
2022/12/27 09:37:09;;;;;;;6.43;2.38;;;;;;;11.58;97.81;100854.53;5025537;28;20030;-58
2022/12/27 09:39:35;;;;;;;4.35;2.40;;;;;;;11.64;98.03;100848.31;5033195;28;20104;-59
2022/12/27 09:42:19;;;;;;;6.25;2.33;;;;;;;11.54;98.78;100854.09;5033308;28;20047;-59
2022/12/27 09:44:57;;;;;;;5.32;2.35;;;;;;;11.66;98.92;100856.97;5033456;28;20080;-59
2022/12/27 09:47:33;;;;;;;6.32;2.80;;;;;;;11.72;99.25;100842.72;5033418;28;20036;-59
2022/12/27 09:50:14;;;;;;;4.65;2.17;;;;;;;11.71;99.85;100813.41;5033500;28;20026;-59
2022/12/27 09:52:53;;;;;;;5.95;2.20;;;;;;;11.68;100.00;100836.13;5033082;28;20022;-59
2022/12/27 09:55:47;;;;;;;4.55;2.00;;;;;;;11.72;100.00;100829.31;5033178;28;20500;-58
2022/12/27 09:58:38;;;;;;;2.78;1.58;;;;;;;11.69;100.00;100831.59;5023537;28;20379;-58
2022/12/27 10:01:35;;;;;;;5.40;2.00;;;;;;;11.75;100.00;100850.31;5015884;28;20026;-59
2022/12/27 10:04:02;;;;;;;3.80;1.65;;;;;;;11.78;100.00;100860.63;5012668;28;20060;-58
2022/12/27 10:06:48;;;;;;;5.72;2.38;;;;;;;11.84;100.00;100849.06;5032926;28;20396;-59
2022/12/27 10:09:29;;;;;;;3.35;2.00;;;;;;;11.81;100.00;100835.22;5013228;28;20428;-59
2022/12/27 10:12:09;;;;;;;2.03;1.40;;;;;;;11.82;100.00;100829.69;5012501;28;20096;-59
2022/12/27 10:14:52;;;;;;;3.65;1.50;;;;;;;11.81;100.00;100833.41;5013335;28;20061;-58
2022/12/27 10:17:47;;;;;;;2.67;1.70;;;;;;;11.80;100.00;100844.31;5012903;28;20030;-58
2022/12/27 10:20:46;;;;;;;2.97;1.77;;;;;;;11.78;100.00;100849.91;5012786;28;20030;-58
2022/12/27 10:23:19;;;;;;;2.15;1.40;;;;;;;11.80;100.00;100828.22;5013336;28;20494;-58
2022/12/27 10:25:46;;;;;;;3.72;1.67;;;;;;;11.77;100.00;100818.78;5012893;28;20034;-59
2022/12/27 10:28:21;;;;;;;2.45;1.45;;;;;;;11.81;100.00;100801.22;5012742;28;20498;-59
2022/12/27 10:30:48;;;;;;;2.85;1.75;;;;;;;11.73;100.00;100793.41;4995685;28;20065;-58
2022/12/27 10:33:30;;;;;;;4.88;1.50;;;;;;;11.76;100.00;100809.06;5012694;28;20045;-58
2022/12/27 10:35:57;;;;;;;2.83;1.55;;;;;;;11.88;100.00;100850.31;5012719;28;20044;-58
2022/12/27 10:38:30;;;;;;;2.65;1.67;;;;;;;11.94;100.00;100842.41;5012285;28;20376;-58
2022/12/27 10:41:15;;;;;;;5.32;1.90;;;;;;;11.84;100.00;100848.25;5012888;28;20040;-58
2022/12/27 10:43:43;;;;;;;5.63;1.52;;;;;;;11.94;100.00;100847.78;5012567;28;20097;-58
2022/12/27 10:46:19;;;;;;;3.17;1.30;;;;;;;11.95;100.00;100854.81;5012719;28;20034;-59
2022/12/27 10:49:23;;;;;;;2.53;1.20;;;;;;;12.03;100.00;100850.00;5012125;28;20072;-59
2022/12/27 10:51:52;;;;;;;1.80;1.08;;;;;;;11.99;100.00;100842.59;5012362;28;20025;-59
2022/12/27 10:54:27;;;;;;;2.28;0.80;;;;;;;12.05;100.00;100817.63;5012908;28;20411;-58
2022/12/27 10:56:54;;;;;;;2.35;1.25;;;;;;;12.07;100.00;100850.41;5012790;28;20025;-58
2022/12/27 10:59:23;;;;;;;3.10;1.58;;;;;;;12.02;100.00;100831.44;5011936;28;20026;-58
2022/12/27 11:02:18;;;;;;;1.40;0.80;;;;;;;12.06;100.00;100835.34;5030115;28;20025;-59
2022/12/27 11:04:59;;;;;;;1.73;1.13;;;;;;;12.13;100.00;100826.22;5021442;28;20460;-59
2022/12/27 11:07:31;;;;;;;3.03;1.30;;;;;;;12.18;100.00;100817.50;5025670;28;20053;-58
2022/12/27 11:10:14;;;;;;;3.03;1.52;;;;;;;12.17;100.00;100805.13;5011769;28;20033;-59
2022/12/27 11:12:54;;;;;;;3.60;1.27;;;;;;;12.20;100.00;100825.34;5011844;28;20472;-59
2022/12/27 11:15:21;;;;;;;2.15;1.05;;;;;;;12.27;100.00;100829.63;5012192;28;20107;-59
2022/12/27 11:17:56;;;;;;;1.15;0.80;;;;;;;12.36;100.00;100814.88;5011937;28;20029;-59
2022/12/27 11:20:30;;;;;;;0.90;0.70;;;;;;;12.40;100.00;100769.66;5011937;28;20314;-58
2022/12/27 11:23:24;;;;;;;0.88;0.60;;;;;;;12.55;100.00;100729.06;5010909;28;20138;-58
2022/12/27 11:26:01;;;;;;;0.90;0.50;;;;;;;12.66;100.00;100763.22;5009255;28;20100;-58
2022/12/27 11:28:51;;;;;;;1.63;0.73;;;;;;;12.64;100.00;100763.44;5011924;28;20026;-58
2022/12/27 11:31:28;;;;;;;1.55;0.45;;;;;;;12.79;100.00;100789.94;5012356;28;20534;-58
2022/12/27 11:33:56;;;;;;;0.95;0.30;;;;;;;12.87;100.00;100794.19;5011719;28;20038;-58
2022/12/27 11:36:24;;;;;;;1.08;0.50;;;;;;;12.88;100.00;100785.09;5011971;28;20025;-59
2022/12/27 11:38:51;;;;;;;3.17;0.63;;;;;;;12.82;100.00;100805.59;5011438;28;20033;-58
2022/12/27 11:41:40;;;;;;;0.93;0.47;;;;;;;12.79;100.00;100822.19;5011822;28;20121;-58
2022/12/27 11:44:31;;;;;;;4.85;0.65;;;;;;;12.70;100.00;100815.44;5011750;28;20450;-59
2022/12/27 11:47:25;;;;;;;3.42;0.55;;;;;;;12.73;100.00;100817.69;5011830;28;20053;-59
2022/12/27 11:50:01;;;;;;;2.70;0.75;;;;;;;12.85;100.00;100815.09;5011371;28;20022;-58
2022/12/27 11:52:45;;;;;;;1.90;0.85;;;;;;;12.76;100.00;100797.63;5011771;28;20034;-58
2022/12/27 11:55:56;;;;;;;0.82;0.40;;;;;;;12.68;100.00;100782.63;5011684;28;20034;-58
2022/12/27 11:58:53;;;;;;;0.85;0.38;;;;;;;12.74;100.00;100805.91;5011290;28;20490;-58
2022/12/27 12:02:08;;;;;;;2.05;0.40;;;;;;;12.77;100.00;100829.66;5025296;28;20037;-58
2022/12/27 12:04:52;;;;;;;0.88;0.40;;;;;;;12.90;100.00;100826.81;5010076;28;20530;-58
2022/12/27 12:07:46;;;;;;;0.50;0.30;;;;;;;13.03;100.00;100814.28;5025970;28;20041;-58
2022/12/27 12:10:36;;;;;;;1.13;0.47;;;;;;;13.09;100.00;100867.16;5011243;28;20026;-58
2022/12/27 12:13:12;;;;;;;1.95;0.63;;;;;;;13.11;100.00;100889.25;5011566;28;20045;-58
2022/12/27 12:15:47;;;;;;;;;;;;;;;13.17;100.00;100894.56;5012210;28;20029;-58
2022/12/27 12:18:28;;;;;;;5.10;0.80;;;;;;;13.15;100.00;100879.69;5011243;28;19913;-58
2022/12/27 12:21:29;;;;;;;5.20;1.40;;;;;;;13.00;100.00;100861.25;5011423;28;20030;-58
2022/12/27 12:24:35;;;;;;;11.65;1.52;;;;;;;13.02;100.00;100885.22;5011785;28;20056;-58
2022/12/27 12:27:33;;;;;;;6.90;1.10;;;;;;;13.12;100.00;100891.72;5011754;28;20034;-58
2022/12/27 12:30:21;;;;;;;1.63;0.40;;;;;;;13.20;100.00;100890.59;4977870;28;20026;-58
2022/12/27 12:33:37;;;;;;;4.80;0.75;;;;;;;13.31;99.94;100887.22;5011251;28;20061;-58
2022/12/27 12:36:21;;;;;;;5.28;1.08;;;;;;;13.29;99.86;100894.69;4980944;28;20488;-58
2022/12/27 12:38:55;;;;;;;2.30;0.77;;;;;;;13.34;99.47;100881.41;5014742;28;20036;-58
2022/12/27 12:41:43;;;;;;;1.63;0.30;;;;;;;13.16;100.00;100878.69;5014813;28;20037;-58
2022/12/27 12:44:35;;;;;;;4.25;0.50;;;;;;;13.14;100.00;100870.00;4997050;28;20423;-58
2022/12/27 12:47:08;;;;;;;1.40;0.40;;;;;;;13.26;100.00;100899.69;5014653;28;20032;-58
2022/12/27 12:49:39;;;;;;;2.50;0.50;;;;;;;13.23;100.00;100898.28;5014619;28;20064;-58
2022/12/27 12:52:29;;;;;;;0.90;0.50;;;;;;;13.14;100.00;100903.06;5014510;28;20503;-58
2022/12/27 12:55:23;;;;;;;0.82;0.40;;;;;;;13.17;100.00;100897.25;5014681;28;20464;-58
2022/12/27 12:58:08;;;;;;;2.30;0.47;;;;;;;13.27;100.00;100920.97;5014468;28;20025;-57
2022/12/27 13:00:55;;;;;;;1.58;0.50;;;;;;;13.31;100.00;100927.53;5022589;28;20112;-58
2022/12/27 13:03:44;;;;;;;3.50;0.85;;;;;;;13.30;100.00;100927.75;5012736;28;20132;-58
2022/12/27 13:06:36;;;;;;;2.00;0.77;;;;;;;13.39;99.97;100932.66;5031398;28;20029;-58
2022/12/27 13:09:52;;;;;;;1.30;0.60;;;;;;;13.47;99.14;100953.84;5014517;28;20113;-57
2022/12/27 13:12:52;;;;;;;4.85;0.65;;;;;;;13.59;98.54;100948.56;4978012;28;20237;-59
2022/12/27 13:15:42;;;;;;;2.88;0.70;;;;;;;13.53;98.99;100959.38;4981597;28;20034;-58
2022/12/27 13:18:53;;;;;;;2.85;0.82;;;;;;;13.61;98.26;100953.72;5014894;28;20044;-58
2022/12/27 13:21:31;;;;;;;7.10;1.30;;;;;;;13.74;97.22;100951.69;5005473;28;20034;-58
2022/12/27 13:24:00;;;;;;;4.72;1.00;;;;;;;13.66;97.73;100972.72;5026094;28;20022;-58
2022/12/27 13:26:42;;;;;;;6.40;0.88;;;;;;;13.58;97.77;100979.19;5028735;28;20101;-58